Terminal Aerodrome Forecast
Issued by NWS

Home | Current Version | Previous Version | Text Only | Print | Product List | Glossary On
Versions: 1 2 3 4 5 6 7 8 9 10 11 12 13 14 15 16 17 18
000
FTUS44 KMAF 061742
TAFPEQ
TAF
KPEQ 061742Z 0618/0718 12015G25KT P6SM SKC
     FM062200 11025G35KT P6SM SCT120 BKN250
     FM070100 12020G30KT P6SM BKN120
     FM070600 11012G20KT P6SM SCT250
     FM071200 VRB04KT P6SM SCT250
     FM071500 27007KT P6SM SCT250=

USA.gov is the U.S. government's official web portal to all federal, state and local government web resources and services.